createdAt,value
2023-02-13T00:00:26.360Z,99.99
2023-02-13T00:01:26.363Z,99.99
2023-02-13T00:02:26.360Z,99.99
2023-02-13T00:03:26.392Z,99.99
2023-02-13T00:04:26.350Z,99.99
2023-02-13T00:05:26.317Z,99.99
2023-02-13T00:06:26.312Z,99.99
2023-02-13T00:07:26.308Z,99.99
2023-02-13T00:08:26.301Z,99.99
2023-02-13T00:09:26.309Z,99.99
2023-02-13T00:10:26.281Z,99.99
2023-02-13T00:11:26.274Z,99.99
2023-02-13T00:12:26.272Z,99.99
2023-02-13T00:13:26.257Z,99.99
2023-02-13T00:14:26.272Z,99.99
2023-02-13T00:15:26.299Z,99.99
2023-02-13T00:16:26.228Z,99.99
2023-02-13T00:17:26.229Z,99.99
2023-02-13T00:18:26.223Z,99.99
2023-02-13T00:19:26.234Z,99.99
2023-02-13T00:20:26.205Z,99.99
2023-02-13T00:21:26.192Z,99.99
2023-02-13T00:22:26.205Z,99.99
2023-02-13T00:23:26.178Z,99.99
2023-02-13T00:24:26.198Z,99.99
2023-02-13T00:25:26.158Z,99.99
2023-02-13T00:26:26.159Z,99.99
2023-02-13T00:27:27.147Z,99.99
2023-02-13T00:28:26.174Z,99.99
2023-02-13T00:29:26.187Z,99.99
2023-02-13T00:30:26.120Z,99.99
2023-02-13T00:31:26.248Z,99.99
2023-02-13T00:32:26.101Z,99.99
2023-02-13T00:33:26.094Z,99.99
2023-02-13T00:34:26.114Z,99.99
2023-02-13T00:35:26.083Z,99.99
2023-02-13T00:36:26.069Z,99.99
2023-02-13T00:37:26.066Z,99.99
2023-02-13T00:38:26.057Z,99.99
2023-02-13T00:39:26.070Z,99.99
2023-02-13T00:40:26.041Z,99.99
2023-02-13T00:41:26.029Z,99.99
2023-02-13T00:42:26.021Z,99.99
2023-02-13T00:43:26.016Z,99.99
2023-02-13T00:44:26.033Z,99.99
2023-02-13T00:45:26.000Z,99.99
2023-02-13T00:46:26.017Z,99.99
2023-02-13T00:47:25.983Z,99.99
2023-02-13T00:48:25.976Z,99.99
2023-02-13T00:49:26.003Z,99.99
2023-02-13T00:50:25.962Z,99.99
2023-02-13T00:51:25.956Z,99.99
2023-02-13T00:52:25.945Z,99.99
2023-02-13T00:53:25.939Z,99.99
2023-02-13T00:54:25.955Z,99.99
2023-02-13T00:55:25.928Z,99.99
2023-02-13T00:56:25.914Z,99.99
2023-02-13T00:57:25.901Z,99.99
2023-02-13T00:58:26.919Z,99.99
2023-02-13T00:59:25.911Z,99.99
2023-02-13T01:00:25.880Z,99.99
2023-02-13T01:01:25.936Z,99.99
2023-02-13T01:02:25.863Z,99.99
2023-02-13T01:03:25.893Z,99.99
2023-02-13T01:04:25.890Z,99.99
2023-02-13T01:05:25.840Z,99.99
2023-02-13T01:06:25.837Z,99.99
2023-02-13T01:07:25.825Z,99.99
2023-02-13T01:08:25.823Z,99.99
2023-02-13T01:09:25.844Z,99.99
2023-02-13T01:10:25.802Z,99.99
2023-02-13T01:11:25.814Z,99.99
2023-02-13T01:12:25.786Z,99.99
2023-02-13T01:13:25.783Z,99.99
2023-02-13T01:14:25.803Z,99.99
2023-02-13T01:15:25.766Z,99.99
2023-02-13T01:16:25.779Z,99.99
2023-02-13T01:17:25.748Z,99.99
2023-02-13T01:18:25.747Z,99.99
2023-02-13T01:19:25.762Z,99.99
2023-02-13T01:20:25.724Z,99.99
2023-02-13T01:21:25.717Z,99.99
2023-02-13T01:22:25.711Z,99.99
2023-02-13T01:23:25.707Z,99.99
2023-02-13T01:24:25.717Z,99.99
2023-02-13T01:25:25.694Z,99.99
2023-02-13T01:26:25.674Z,99.99
2023-02-13T01:27:25.678Z,99.99
2023-02-13T01:28:25.703Z,99.99
2023-02-13T01:29:25.681Z,99.99
2023-02-13T01:30:25.648Z,99.99
2023-02-13T01:31:25.747Z,99.99
2023-02-13T01:32:25.642Z,99.99
2023-02-13T01:33:25.630Z,99.99
2023-02-13T01:34:25.647Z,99.99
2023-02-13T01:35:25.612Z,99.99
2023-02-13T01:36:25.607Z,99.99
2023-02-13T01:37:25.589Z,99.99
2023-02-13T01:38:25.582Z,99.99
2023-02-13T01:39:25.600Z,99.99
2023-02-13T01:40:25.576Z,99.99
2023-02-13T01:41:25.553Z,99.99
2023-02-13T01:42:25.553Z,99.99
2023-02-13T01:43:25.556Z,99.99
2023-02-13T01:44:25.571Z,99.99
2023-02-13T01:45:25.526Z,99.99
2023-02-13T01:46:25.552Z,99.99
2023-02-13T01:47:25.506Z,99.99
2023-02-13T01:48:25.499Z,99.99
2023-02-13T01:49:25.520Z,99.99
2023-02-13T01:50:25.483Z,99.99
2023-02-13T01:51:25.481Z,99.99
2023-02-13T01:52:25.465Z,99.99
2023-02-13T01:53:25.483Z,99.99
2023-02-13T01:54:25.451Z,99.99
2023-02-13T01:55:25.470Z,99.99
2023-02-13T01:56:25.433Z,99.99
2023-02-13T01:57:25.434Z,99.99
2023-02-13T01:58:25.421Z,99.99
2023-02-13T01:59:25.409Z,99.99
2023-02-13T02:00:25.430Z,99.99
2023-02-13T02:01:25.446Z,99.99
2023-02-13T02:02:25.458Z,99.99
2023-02-13T02:03:25.380Z,99.99
2023-02-13T02:04:25.378Z,99.99
2023-02-13T02:05:25.392Z,99.99
2023-02-13T02:06:25.357Z,99.99
2023-02-13T02:07:25.364Z,99.99
2023-02-13T02:08:25.341Z,99.99
2023-02-13T02:09:25.334Z,99.99
2023-02-13T02:10:25.351Z,99.99
2023-02-13T02:11:25.317Z,99.99
2023-02-13T02:12:25.310Z,99.99
2023-02-13T02:13:25.316Z,99.99
2023-02-13T02:14:25.298Z,99.99
2023-02-13T02:15:25.314Z,99.99
2023-02-13T02:16:25.359Z,99.99
2023-02-13T02:17:25.276Z,99.99
2023-02-13T02:18:25.279Z,99.99
2023-02-13T02:19:25.261Z,99.99
2023-02-13T02:20:25.280Z,99.99
2023-02-13T02:21:25.239Z,99.99
2023-02-13T02:22:25.242Z,99.99
2023-02-13T02:23:25.225Z,99.99
2023-02-13T02:24:25.215Z,99.99
2023-02-13T02:25:25.238Z,99.99
2023-02-13T02:26:25.205Z,99.99
2023-02-13T02:27:25.217Z,99.99
2023-02-13T02:28:25.242Z,99.99
2023-02-13T02:29:25.192Z,99.99
2023-02-13T02:30:25.244Z,99.99
2023-02-13T02:31:25.214Z,99.99
2023-02-13T02:32:25.152Z,99.99
2023-02-13T02:33:25.148Z,99.99
2023-02-13T02:34:25.138Z,99.99
2023-02-13T02:35:25.155Z,99.99
2023-02-13T02:36:25.122Z,99.99
2023-02-13T02:37:25.118Z,99.99
2023-02-13T02:38:25.106Z,99.99
2023-02-13T02:39:25.093Z,99.99
2023-02-13T02:40:25.121Z,99.99
2023-02-13T02:41:25.076Z,99.99
2023-02-13T02:42:25.078Z,99.99
2023-02-13T02:43:25.075Z,99.99
2023-02-13T02:44:25.059Z,99.99
2023-02-13T02:45:25.078Z,99.99
2023-02-13T02:46:25.054Z,99.99
2023-02-13T02:47:25.034Z,99.99
2023-02-13T02:48:25.023Z,99.99
2023-02-13T02:49:25.012Z,99.99
2023-02-13T02:50:25.052Z,99.99
2023-02-13T02:51:25.000Z,99.99
2023-02-13T02:52:24.992Z,99.99
2023-02-13T02:53:24.978Z,99.99
2023-02-13T02:54:24.971Z,99.99
2023-02-13T02:55:24.991Z,99.99
2023-02-13T02:56:24.953Z,99.99
2023-02-13T02:57:24.958Z,99.99
2023-02-13T02:58:24.941Z,99.99
2023-02-13T02:59:24.936Z,99.99
2023-02-13T03:00:24.960Z,99.99
2023-02-13T03:01:24.986Z,99.99
2023-02-13T03:02:24.913Z,99.99
2023-02-13T03:03:24.899Z,99.99
2023-02-13T03:04:25.925Z,99.99
2023-02-13T03:05:24.910Z,99.99
2023-02-13T03:06:24.876Z,99.99
2023-02-13T03:07:24.871Z,99.99
2023-02-13T03:08:24.858Z,99.99
2023-02-13T03:09:24.851Z,99.99
2023-02-13T03:10:24.869Z,99.99
2023-02-13T03:11:24.831Z,99.99
2023-02-13T03:12:24.831Z,99.99
2023-02-13T03:13:24.831Z,99.99
2023-02-13T03:14:24.815Z,99.99
2023-02-13T03:15:24.829Z,99.99
2023-02-13T03:16:24.827Z,99.99
2023-02-13T03:17:24.796Z,99.99
2023-02-13T03:18:24.775Z,99.99
2023-02-13T03:19:24.775Z,99.99
2023-02-13T03:20:24.791Z,99.99
2023-02-13T03:21:24.757Z,99.99
2023-02-13T03:22:24.752Z,99.99
2023-02-13T03:23:24.743Z,99.99
2023-02-13T03:24:24.733Z,99.99
2023-02-13T03:25:24.753Z,99.99
2023-02-13T03:26:24.717Z,99.99
2023-02-13T03:27:24.711Z,99.99
2023-02-13T03:28:24.740Z,99.99
2023-02-13T03:29:24.688Z,99.99
2023-02-13T03:30:24.740Z,99.99
2023-02-13T03:31:24.725Z,99.99
2023-02-13T03:32:24.667Z,99.99
2023-02-13T03:33:24.657Z,99.99
2023-02-13T03:34:24.651Z,99.99
2023-02-13T03:35:24.670Z,99.99
2023-02-13T03:36:24.626Z,99.99
2023-02-13T03:37:25.628Z,99.99
2023-02-13T03:38:24.615Z,99.99
2023-02-13T03:39:24.621Z,99.99
2023-02-13T03:40:24.872Z,99.99
2023-02-13T03:41:24.598Z,99.99
2023-02-13T03:42:24.584Z,99.99
2023-02-13T03:43:24.596Z,99.99
2023-02-13T03:44:24.574Z,99.99
2023-02-13T03:45:24.608Z,99.99
2023-02-13T03:46:24.560Z,99.99
2023-02-13T03:47:24.548Z,99.99
2023-02-13T03:48:24.543Z,99.99
2023-02-13T03:49:24.540Z,99.99
2023-02-13T03:50:24.528Z,99.99
2023-02-13T03:51:24.547Z,99.99
2023-02-13T03:52:24.513Z,99.99
2023-02-13T03:53:24.513Z,99.99
2023-02-13T03:54:24.498Z,99.99
2023-02-13T03:55:24.491Z,99.99
2023-02-13T03:56:24.510Z,99.99
2023-02-13T03:57:24.476Z,99.99
2023-02-13T03:58:24.470Z,99.99
2023-02-13T03:59:24.471Z,99.99
2023-02-13T04:00:24.452Z,99.99
2023-02-13T04:01:24.494Z,99.99
2023-02-13T04:02:24.484Z,99.99
2023-02-13T04:03:24.433Z,99.99
2023-02-13T04:04:24.432Z,99.99
2023-02-13T04:05:24.416Z,99.99
2023-02-13T04:06:24.435Z,99.99
2023-02-13T04:07:24.400Z,99.99
2023-02-13T04:08:24.398Z,99.99
2023-02-13T04:09:24.382Z,99.99
2023-02-13T04:10:24.377Z,99.99
2023-02-13T04:11:24.393Z,99.99
2023-02-13T04:12:24.361Z,99.99
2023-02-13T04:13:24.352Z,99.99
2023-02-13T04:14:24.356Z,99.99
2023-02-13T04:15:24.340Z,99.99
2023-02-13T04:16:24.381Z,99.99
2023-02-13T04:17:24.329Z,99.99
2023-02-13T04:18:24.315Z,99.99
2023-02-13T04:19:24.420Z,99.99
2023-02-13T04:20:24.309Z,99.99
2023-02-13T04:21:24.327Z,99.99
2023-02-13T04:22:24.284Z,99.99
2023-02-13T04:23:24.280Z,99.99
2023-02-13T04:24:24.273Z,99.99
2023-02-13T04:25:24.267Z,99.99
2023-02-13T04:26:24.277Z,99.99
2023-02-13T04:27:24.243Z,99.99
2023-02-13T04:28:24.300Z,99.99
2023-02-13T04:29:24.229Z,99.99
2023-02-13T04:30:24.305Z,99.99
2023-02-13T04:31:24.306Z,99.99
2023-02-13T04:32:24.202Z,99.99
2023-02-13T04:33:24.194Z,99.99
2023-02-13T04:34:24.186Z,99.99
2023-02-13T04:35:24.180Z,99.99
2023-02-13T04:36:24.196Z,99.99
2023-02-13T04:37:24.165Z,99.99
2023-02-13T04:38:24.154Z,99.99
2023-02-13T04:39:24.156Z,99.99
2023-02-13T04:40:24.136Z,99.99
2023-02-13T04:41:24.158Z,99.99
2023-02-13T04:42:24.125Z,99.99
2023-02-13T04:43:24.119Z,99.99
2023-02-13T04:44:24.106Z,99.99
2023-02-13T04:45:24.106Z,99.99
2023-02-13T04:46:24.185Z,99.99
2023-02-13T04:47:24.087Z,99.99
2023-02-13T04:48:24.075Z,99.99
2023-02-13T04:49:24.070Z,99.99
2023-02-13T04:50:24.067Z,99.99
2023-02-13T04:51:24.083Z,99.99
2023-02-13T04:52:24.043Z,99.99
2023-02-13T04:53:24.043Z,99.99
2023-02-13T04:54:24.034Z,99.99
2023-02-13T04:55:24.025Z,99.99
2023-02-13T04:56:24.018Z,99.99
2023-02-13T04:57:24.037Z,99.99
2023-02-13T04:58:24.018Z,99.99
2023-02-13T04:59:23.983Z,99.99
2023-02-13T05:00:24.991Z,99.99
2023-02-13T05:01:24.048Z,99.99
2023-02-13T05:02:24.005Z,99.99
2023-02-13T05:03:23.966Z,99.99
2023-02-13T05:04:23.970Z,99.99
2023-02-13T05:05:23.951Z,99.99
2023-02-13T05:06:23.940Z,99.99
2023-02-13T05:07:23.968Z,99.99
2023-02-13T05:08:23.922Z,99.99
2023-02-13T05:09:23.913Z,99.99
2023-02-13T05:10:23.914Z,99.99
2023-02-13T05:11:23.903Z,99.99
2023-02-13T05:12:23.912Z,99.99
2023-02-13T05:13:23.883Z,99.99
2023-02-13T05:14:23.877Z,99.99
2023-02-13T05:15:23.864Z,99.99
2023-02-13T05:16:23.857Z,99.99
2023-02-13T05:17:24.298Z,99.99
2023-02-13T05:18:23.839Z,99.99
2023-02-13T05:19:23.831Z,99.99
2023-02-13T05:20:23.825Z,99.99
2023-02-13T05:21:23.814Z,99.99
2023-02-13T05:22:23.844Z,99.99
2023-02-13T05:23:23.865Z,99.99
2023-02-13T05:24:23.790Z,99.99
2023-02-13T05:25:23.794Z,99.99
2023-02-13T05:26:23.780Z,99.99
2023-02-13T05:27:24.792Z,99.99
2023-02-13T05:28:23.877Z,99.99
2023-02-13T05:29:23.757Z,99.99
2023-02-13T05:30:23.756Z,99.99
2023-02-13T05:31:23.843Z,99.99
2023-02-13T05:32:23.750Z,99.99
2023-02-13T05:33:23.725Z,99.99
2023-02-13T05:34:23.717Z,99.99
2023-02-13T05:35:23.707Z,99.99
2023-02-13T05:36:23.712Z,99.99
2023-02-13T05:37:23.715Z,99.99
2023-02-13T05:38:23.687Z,99.99
2023-02-13T05:39:23.671Z,99.99
2023-02-13T05:40:23.676Z,99.99
2023-02-13T05:41:23.664Z,99.99
2023-02-13T05:42:23.675Z,99.99
2023-02-13T05:43:23.643Z,99.99
2023-02-13T05:44:23.638Z,99.99
2023-02-13T05:45:23.627Z,99.99
2023-02-13T05:46:23.668Z,99.99
2023-02-13T05:47:23.638Z,99.99
2023-02-13T05:48:23.605Z,99.99
2023-02-13T05:49:23.596Z,99.99
2023-02-13T05:50:23.588Z,99.99
2023-02-13T05:51:23.588Z,99.99
2023-02-13T05:52:23.610Z,99.99
2023-02-13T05:53:23.573Z,99.99
2023-02-13T05:54:23.571Z,99.99
2023-02-13T05:55:23.550Z,99.99
2023-02-13T05:56:23.549Z,99.99
2023-02-13T05:57:23.566Z,99.99
2023-02-13T05:58:23.540Z,99.99
2023-02-13T05:59:24.105Z,99.99
2023-02-13T06:00:24.514Z,99.99
2023-02-13T06:01:23.506Z,99.99
2023-02-13T06:02:23.558Z,99.99
2023-02-13T06:03:23.576Z,99.99
2023-02-13T06:04:23.484Z,99.99
2023-02-13T06:05:23.476Z,99.99
2023-02-13T06:06:23.466Z,99.99
2023-02-13T06:07:23.480Z,99.99
2023-02-13T06:08:23.449Z,99.99
2023-02-13T06:09:23.442Z,99.99
2023-02-13T06:10:23.436Z,99.99
2023-02-13T06:11:23.423Z,99.99
2023-02-13T06:12:23.413Z,99.99
2023-02-13T06:13:23.435Z,99.99
2023-02-13T06:14:23.398Z,99.99
2023-02-13T06:15:24.397Z,99.99
2023-02-13T06:16:23.436Z,99.99
2023-02-13T06:17:23.378Z,99.99
2023-02-13T06:18:23.393Z,99.99
2023-02-13T06:19:23.365Z,99.99
2023-02-13T06:20:23.352Z,99.99
2023-02-13T06:21:23.357Z,99.99
2023-02-13T06:22:23.339Z,99.99
2023-02-13T06:23:23.362Z,99.99
2023-02-13T06:24:23.321Z,99.99
2023-02-13T06:25:23.311Z,99.99
2023-02-13T06:26:23.301Z,99.99
2023-02-13T06:27:23.321Z,99.99
2023-02-13T06:28:23.336Z,99.99
2023-02-13T06:29:23.280Z,99.99
2023-02-13T06:30:23.286Z,99.99
2023-02-13T06:31:23.392Z,99.99
2023-02-13T06:32:23.257Z,99.99
2023-02-13T06:33:23.281Z,99.99
2023-02-13T06:34:23.237Z,99.99
2023-02-13T06:35:24.232Z,99.99
2023-02-13T06:36:23.223Z,99.99
2023-02-13T06:37:23.211Z,99.99
2023-02-13T06:38:23.232Z,99.99
2023-02-13T06:39:23.201Z,99.99
2023-02-13T06:40:23.203Z,99.99
2023-02-13T06:41:23.186Z,99.99
2023-02-13T06:42:23.178Z,99.99
2023-02-13T06:43:23.191Z,99.99
2023-02-13T06:44:23.180Z,99.99
2023-02-13T06:45:23.155Z,99.99
2023-02-13T06:46:23.294Z,99.99
2023-02-13T06:47:23.135Z,99.99
2023-02-13T06:48:23.180Z,99.99
2023-02-13T06:49:23.176Z,99.99
2023-02-13T06:50:23.118Z,99.99
2023-02-13T06:51:23.109Z,99.99
2023-02-13T06:52:23.094Z,99.99
2023-02-13T06:53:23.126Z,99.99
2023-02-13T06:54:33.901Z,99.99
2023-02-13T06:55:25.070Z,99.99
2023-02-13T06:56:23.066Z,99.99
2023-02-13T06:57:23.059Z,99.99
2023-02-13T06:58:23.089Z,99.99
2023-02-13T06:59:23.034Z,99.99
2023-02-13T07:00:23.028Z,99.99
2023-02-13T07:01:23.067Z,99.99
2023-02-13T07:02:23.023Z,99.99
2023-02-13T07:03:23.031Z,99.99
2023-02-13T07:04:23.000Z,99.99
2023-02-13T07:05:22.988Z,99.99
2023-02-13T07:06:22.990Z,99.99
2023-02-13T07:07:22.977Z,99.99
2023-02-13T07:08:23.000Z,99.99
2023-02-13T07:09:22.958Z,99.99
2023-02-13T07:10:22.966Z,99.99
2023-02-13T07:11:22.943Z,99.99
2023-02-13T07:12:22.941Z,99.99
2023-02-13T07:13:22.957Z,99.99
2023-02-13T07:14:22.923Z,99.99
2023-02-13T07:15:22.923Z,99.99
2023-02-13T07:16:22.961Z,99.99
2023-02-13T07:17:22.903Z,99.99
2023-02-13T07:18:22.917Z,99.99
2023-02-13T07:19:22.885Z,99.99
2023-02-13T07:20:22.879Z,99.99
2023-02-13T07:21:22.865Z,99.99
2023-02-13T07:22:22.872Z,99.99
2023-02-13T07:23:22.900Z,99.99
2023-02-13T07:24:22.844Z,99.99
2023-02-13T07:25:22.841Z,99.99
2023-02-13T07:26:22.830Z,99.99
2023-02-13T07:27:22.826Z,99.99
2023-02-13T07:28:22.887Z,99.99
2023-02-13T07:29:22.808Z,99.99
2023-02-13T07:30:22.810Z,99.99
2023-02-13T07:31:22.852Z,99.99
2023-02-13T07:32:22.784Z,99.99
2023-02-13T07:33:22.801Z,99.99
2023-02-13T07:34:22.780Z,99.99
2023-02-13T07:35:22.763Z,99.99
2023-02-13T07:36:22.751Z,99.99
2023-02-13T07:37:22.746Z,99.99
2023-02-13T07:38:22.762Z,99.99
2023-02-13T07:39:22.731Z,99.99
2023-02-13T07:40:22.728Z,99.99
2023-02-13T07:41:22.717Z,99.99
2023-02-13T07:42:22.707Z,99.99
2023-02-13T07:43:22.731Z,99.99
2023-02-13T07:44:22.696Z,99.99
2023-02-13T07:45:22.680Z,99.99
2023-02-13T07:46:22.716Z,99.99
2023-02-13T07:47:22.694Z,99.99
2023-02-13T07:48:22.694Z,99.99
2023-02-13T07:49:22.666Z,99.99
2023-02-13T07:50:22.653Z,99.99
2023-02-13T07:51:22.646Z,99.85
2023-02-13T07:52:22.637Z,99.99
2023-02-13T07:53:22.658Z,99.54
2023-02-13T07:54:22.626Z,98.92
2023-02-13T07:55:22.608Z,98.71
2023-02-13T07:56:22.612Z,98.88
2023-02-13T07:57:22.613Z,98.46
2023-02-13T07:58:22.617Z,98.77
2023-02-13T07:59:22.579Z,98.57
2023-02-13T08:00:22.574Z,98.42
2023-02-13T08:01:22.696Z,97.80
2023-02-13T08:02:22.556Z,97.34
2023-02-13T08:03:22.580Z,96.15
2023-02-13T08:04:23.877Z,96.93
2023-02-13T08:05:22.533Z,96.67
2023-02-13T08:06:22.523Z,96.56
2023-02-13T08:07:22.524Z,95.90
2023-02-13T08:08:22.510Z,96.21
2023-02-13T08:09:22.529Z,96.27
2023-02-13T08:10:22.498Z,96.47
2023-02-13T08:11:22.485Z,95.65
2023-02-13T08:12:22.475Z,95.03
2023-02-13T08:13:22.460Z,94.52
2023-02-13T08:14:22.493Z,94.31
2023-02-13T08:15:22.456Z,94.83
2023-02-13T08:16:22.478Z,94.89
2023-02-13T08:17:22.430Z,94.99
2023-02-13T08:18:22.435Z,93.76
2023-02-13T08:19:22.445Z,93.14
2023-02-13T08:20:22.416Z,92.83
2023-02-13T08:21:22.396Z,93.20
2023-02-13T08:22:22.388Z,92.64
2023-02-13T08:23:22.396Z,92.23
2023-02-13T08:24:22.422Z,91.47
2023-02-13T08:25:22.379Z,90.44
2023-02-13T08:26:22.377Z,89.42
2023-02-13T08:27:22.348Z,89.52
2023-02-13T08:28:22.379Z,89.37
2023-02-13T08:29:22.355Z,89.23
2023-02-13T08:30:22.317Z,88.62
2023-02-13T08:31:22.395Z,87.76
2023-02-13T08:32:22.367Z,86.05
2023-02-13T08:33:22.302Z,86.91
2023-02-13T08:34:22.315Z,87.85
2023-02-13T08:35:22.283Z,86.83
2023-02-13T08:36:22.297Z,86.18
2023-02-13T08:37:22.263Z,84.19
2023-02-13T08:38:22.264Z,84.05
2023-02-13T08:39:22.274Z,84.17
2023-02-13T08:40:24.477Z,83.50
2023-02-13T08:41:22.228Z,83.73
2023-02-13T08:42:22.227Z,81.40
2023-02-13T08:43:22.222Z,81.26
2023-02-13T08:44:22.246Z,79.86
2023-02-13T08:45:22.200Z,78.80
2023-02-13T08:46:22.286Z,78.42
2023-02-13T08:47:22.201Z,76.21
2023-02-13T08:48:22.187Z,75.57
2023-02-13T08:49:22.198Z,74.28
2023-02-13T08:50:22.164Z,72.17
2023-02-13T08:51:22.167Z,71.36
2023-02-13T08:52:22.158Z,69.43
2023-02-13T08:53:22.146Z,70.89
2023-02-13T08:54:22.169Z,69.60
2023-02-13T08:55:22.127Z,68.46
2023-02-13T08:56:22.113Z,67.08
2023-02-13T08:57:22.112Z,67.14
2023-02-13T08:58:22.098Z,66.03
2023-02-13T08:59:22.121Z,66.54
2023-02-13T09:00:22.097Z,66.91
2023-02-13T09:01:22.127Z,68.56
2023-02-13T09:02:22.101Z,67.75
2023-02-13T09:03:22.060Z,68.43
2023-02-13T09:04:22.045Z,67.95
2023-02-13T09:05:23.070Z,68.23
2023-02-13T09:06:22.045Z,67.78
2023-02-13T09:07:22.028Z,68.86
2023-02-13T09:08:22.036Z,69.84
2023-02-13T09:09:22.012Z,72.08
2023-02-13T09:10:22.031Z,73.50
2023-02-13T09:11:21.998Z,74.86
2023-02-13T09:12:21.997Z,75.57
2023-02-13T09:13:21.981Z,76.36
2023-02-13T09:14:24.207Z,76.97
2023-02-13T09:15:21.991Z,76.32
2023-02-13T09:16:21.981Z,75.13
2023-02-13T09:17:22.951Z,75.44
2023-02-13T09:18:21.942Z,74.62
2023-02-13T09:19:21.940Z,74.52
2023-02-13T09:20:21.956Z,73.10
2023-02-13T09:21:21.929Z,74.65
2023-02-13T09:22:21.948Z,74.42
2023-02-13T09:23:21.909Z,74.93
2023-02-13T09:24:21.901Z,74.55
2023-02-13T09:25:21.918Z,74.55
2023-02-13T09:26:21.888Z,75.51
2023-02-13T09:27:21.884Z,75.75
2023-02-13T09:28:21.921Z,77.01
2023-02-13T09:29:21.861Z,78.48
2023-02-13T09:30:21.883Z,77.80
2023-02-13T09:31:22.010Z,78.61
2023-02-13T09:32:21.838Z,79.06
2023-02-13T09:33:21.832Z,78.96
2023-02-13T09:34:21.821Z,78.89
2023-02-13T09:35:21.852Z,80.22
2023-02-13T09:36:21.807Z,79.82
2023-02-13T09:37:21.800Z,79.91
2023-02-13T09:38:21.792Z,77.79
2023-02-13T09:39:21.793Z,75.57
2023-02-13T09:40:21.803Z,74.69
2023-02-13T09:41:21.772Z,73.23
2023-02-13T09:42:21.763Z,73.40
2023-02-13T09:43:21.748Z,72.38
2023-02-13T09:44:21.747Z,73.36
2023-02-13T09:45:21.760Z,73.54
2023-02-13T09:46:21.795Z,73.19
2023-02-13T09:47:21.712Z,72.45
2023-02-13T09:48:21.709Z,72.45
2023-02-13T09:49:21.702Z,74.52
2023-02-13T09:50:21.799Z,76.59
2023-02-13T09:51:21.680Z,76.29
2023-02-13T09:52:21.686Z,75.54
2023-02-13T09:53:21.673Z,74.58
2023-02-13T09:54:21.661Z,74.04
2023-02-13T09:55:21.691Z,73.60
2023-02-13T09:56:21.645Z,72.86
2023-02-13T09:57:21.731Z,72.65
2023-02-13T09:58:21.629Z,72.86
2023-02-13T09:59:21.625Z,72.52
2023-02-13T10:00:21.646Z,72.11
2023-02-13T10:01:21.641Z,72.55
2023-02-13T10:02:22.603Z,72.31
2023-02-13T10:03:21.600Z,71.53
2023-02-13T10:04:21.588Z,71.40
2023-02-13T10:05:21.655Z,71.19
2023-02-13T10:06:21.599Z,71.60
2023-02-13T10:07:21.568Z,70.68
2023-02-13T10:08:21.568Z,72.45
2023-02-13T10:09:21.557Z,71.23
2023-02-13T10:10:21.589Z,72.48
2023-02-13T10:11:22.405Z,73.54
2023-02-13T10:12:21.534Z,74.49
2023-02-13T10:13:22.160Z,74.52
2023-02-13T10:14:21.519Z,74.79
2023-02-13T10:15:21.511Z,75.34
2023-02-13T10:16:21.567Z,75.85
2023-02-13T10:17:21.495Z,76.87
2023-02-13T10:18:21.497Z,76.56
2023-02-13T10:19:21.509Z,76.25
2023-02-13T10:20:21.480Z,75.20
2023-02-13T10:21:21.486Z,74.55
2023-02-13T10:22:21.471Z,74.52
2023-02-13T10:23:21.449Z,74.79
2023-02-13T10:24:21.444Z,74.62
2023-02-13T10:25:21.440Z,74.73
2023-02-13T10:26:21.460Z,76.25
2023-02-13T10:27:21.413Z,76.15
2023-02-13T10:28:21.458Z,75.71
2023-02-13T10:29:21.396Z,75.13
2023-02-13T10:30:21.396Z,76.25
2023-02-13T10:31:21.511Z,77.72
2023-02-13T10:32:21.522Z,78.88
2023-02-13T10:33:21.362Z,78.41
2023-02-13T10:34:21.355Z,77.89
2023-02-13T10:35:21.346Z,78.34
2023-02-13T10:36:21.372Z,80.01
2023-02-13T10:37:21.329Z,79.70
2023-02-13T10:38:21.321Z,79.70
2023-02-13T10:39:21.316Z,80.32
2023-02-13T10:40:21.308Z,81.38
2023-02-13T10:41:21.327Z,80.39
2023-02-13T10:42:21.297Z,80.60
2023-02-13T10:43:21.285Z,81.86
2023-02-13T10:44:21.281Z,82.37
2023-02-13T10:45:21.272Z,82.71
2023-02-13T10:46:21.293Z,82.82
2023-02-13T10:47:21.262Z,83.27
2023-02-13T10:48:21.242Z,83.64
2023-02-13T10:49:21.238Z,84.15
2023-02-13T10:50:21.229Z,83.33
2023-02-13T10:51:21.242Z,83.78
2023-02-13T10:52:21.206Z,84.19
2023-02-13T10:53:21.204Z,85.22
2023-02-13T10:54:21.193Z,85.22
2023-02-13T10:55:21.188Z,84.19
2023-02-13T10:56:21.203Z,82.92
2023-02-13T10:57:21.184Z,83.88
2023-02-13T10:58:21.160Z,84.25
2023-02-13T10:59:21.161Z,84.25
2023-02-13T11:00:21.141Z,85.28
2023-02-13T11:01:21.187Z,85.01
2023-02-13T11:02:21.125Z,83.68
2023-02-13T11:03:21.118Z,83.78
2023-02-13T11:04:21.188Z,85.83
2023-02-13T11:05:21.100Z,86.04
2023-02-13T11:06:21.118Z,85.93
2023-02-13T11:07:21.084Z,85.93
2023-02-13T11:08:21.079Z,86.58
2023-02-13T11:09:21.088Z,85.63
2023-02-13T11:10:21.062Z,85.83
2023-02-13T11:11:21.081Z,85.42
2023-02-13T11:12:21.044Z,85.42
2023-02-13T11:13:21.036Z,85.22
2023-02-13T11:14:21.054Z,84.91
2023-02-13T11:15:21.018Z,85.11
2023-02-13T11:16:21.052Z,85.69
2023-02-13T11:17:21.002Z,85.42
2023-02-13T11:18:21.004Z,85.38
2023-02-13T11:19:20.985Z,85.99
2023-02-13T11:20:20.969Z,85.89
2023-02-13T11:21:22.007Z,85.58
2023-02-13T11:22:20.961Z,85.58
2023-02-13T11:23:20.956Z,84.25
2023-02-13T11:24:20.952Z,82.98
2023-02-13T11:25:20.944Z,84.01
2023-02-13T11:26:20.970Z,82.78
2023-02-13T11:27:22.192Z,85.14
2023-02-13T11:28:21.929Z,85.64
2023-02-13T11:29:21.007Z,86.16
2023-02-13T11:30:20.904Z,84.07
2023-02-13T11:31:21.092Z,83.56
2023-02-13T11:32:21.074Z,82.95
2023-02-13T11:33:20.888Z,83.83
2023-02-13T11:34:20.874Z,83.22
2023-02-13T11:35:20.867Z,81.72
2023-02-13T11:36:20.862Z,81.82
2023-02-13T11:37:20.875Z,81.82
2023-02-13T11:38:20.839Z,82.03
2023-02-13T11:39:20.839Z,81.51
2023-02-13T11:40:20.828Z,81.21
2023-02-13T11:41:20.836Z,81.41
2023-02-13T11:42:20.835Z,81.31
2023-02-13T11:43:20.804Z,82.13
2023-02-13T11:44:20.797Z,81.41
2023-02-13T11:45:20.786Z,81.51
2023-02-13T11:46:20.822Z,82.20
2023-02-13T11:47:20.799Z,81.93
2023-02-13T11:48:20.765Z,82.70
2023-02-13T11:49:20.778Z,81.88
2023-02-13T11:50:20.750Z,80.90
2023-02-13T11:51:20.742Z,80.87
2023-02-13T11:52:20.758Z,80.29
2023-02-13T11:53:20.724Z,81.82
2023-02-13T11:54:20.731Z,83.01
2023-02-13T11:55:20.704Z,81.99
2023-02-13T11:56:21.731Z,81.48
2023-02-13T11:57:20.726Z,82.09
2023-02-13T11:58:20.824Z,81.65
2023-02-13T11:59:20.687Z,81.65
2023-02-13T12:00:20.685Z,83.07
2023-02-13T12:01:20.691Z,82.97
2023-02-13T12:02:20.796Z,79.60
2023-02-13T12:03:20.695Z,79.70
2023-02-13T12:04:20.664Z,80.73
2023-02-13T12:05:20.697Z,80.01
2023-02-13T12:06:20.634Z,79.74
2023-02-13T12:07:20.647Z,79.80
2023-02-13T12:08:20.617Z,80.21
2023-02-13T12:09:20.608Z,81.13
2023-02-13T12:10:20.605Z,80.62
2023-02-13T12:11:20.595Z,80.42
2023-02-13T12:12:20.613Z,80.52
2023-02-13T12:13:20.580Z,79.29
2023-02-13T12:14:20.572Z,79.16
2023-02-13T12:15:20.566Z,79.66
2023-02-13T12:16:20.567Z,79.70
2023-02-13T12:17:30.814Z,79.36
2023-02-13T12:18:22.540Z,79.57
2023-02-13T12:19:20.538Z,78.95
2023-02-13T12:20:20.527Z,78.95
2023-02-13T12:21:20.517Z,79.36
2023-02-13T12:22:20.539Z,78.85
2023-02-13T12:23:20.499Z,78.81
2023-02-13T12:24:20.511Z,79.22
2023-02-13T12:25:20.486Z,79.32
2023-02-13T12:26:20.474Z,78.20
2023-02-13T12:27:20.495Z,78.81
2023-02-13T12:28:20.532Z,78.20
2023-02-13T12:29:20.502Z,76.46
2023-02-13T12:30:21.446Z,78.00
2023-02-13T12:31:20.446Z,77.42
2023-02-13T12:32:20.450Z,78.00
2023-02-13T12:33:20.416Z,78.54
2023-02-13T12:34:20.409Z,78.50
2023-02-13T12:35:20.400Z,78.91
2023-02-13T12:36:20.393Z,77.79
2023-02-13T12:37:20.386Z,78.09
2023-02-13T12:38:20.407Z,78.71
2023-02-13T12:39:20.370Z,79.12
2023-02-13T12:40:20.361Z,77.04
2023-02-13T12:41:20.376Z,77.96
2023-02-13T12:42:20.350Z,78.67
2023-02-13T12:43:20.362Z,78.74
2023-02-13T12:44:20.361Z,78.94
2023-02-13T12:45:20.322Z,77.92
2023-02-13T12:46:20.328Z,78.16
2023-02-13T12:47:20.313Z,76.90
2023-02-13T12:48:20.321Z,76.22
2023-02-13T12:49:20.300Z,76.22
2023-02-13T12:50:21.013Z,77.11
2023-02-13T12:51:20.282Z,78.53
2023-02-13T12:52:20.275Z,77.92